sensor_id;sensor_type;location;lat;lon;timestamp;pressure;altitude;pressure_sealevel;temperature;humidity
53041;BME280;39326;42.650;23.248;2023-05-08T00:01:12;92737.88;;;11.26;71.26
53041;BME280;39326;42.650;23.248;2023-05-08T00:03:38;92737.13;;;11.29;71.13
53041;BME280;39326;42.650;23.248;2023-05-08T00:06:04;92736.75;;;11.27;71.27
53041;BME280;39326;42.650;23.248;2023-05-08T00:08:29;92738.66;;;11.30;71.58
53041;BME280;39326;42.650;23.248;2023-05-08T00:10:55;92745.91;;;11.30;71.69
53041;BME280;39326;42.650;23.248;2023-05-08T00:13:21;92740.56;;;11.19;71.78
53041;BME280;39326;42.650;23.248;2023-05-08T00:15:47;92749.69;;;11.14;72.06
53041;BME280;39326;42.650;23.248;2023-05-08T00:18:13;92751.22;;;11.12;72.06
53041;BME280;39326;42.650;23.248;2023-05-08T00:20:39;92763.81;;;11.11;72.04
53041;BME280;39326;42.650;23.248;2023-05-08T00:23:05;92750.84;;;11.13;72.23
53041;BME280;39326;42.650;23.248;2023-05-08T00:25:31;92756.97;;;11.10;72.50
53041;BME280;39326;42.650;23.248;2023-05-08T00:27:58;92758.47;;;11.11;72.73
53041;BME280;39326;42.650;23.248;2023-05-08T00:30:24;92761.13;;;11.08;72.76
53041;BME280;39326;42.650;23.248;2023-05-08T00:32:49;92755.06;;;11.04;73.11
53041;BME280;39326;42.650;23.248;2023-05-08T00:35:15;92748.56;;;11.01;73.12
53041;BME280;39326;42.650;23.248;2023-05-08T00:37:41;92750.47;;;11.01;73.11
53041;BME280;39326;42.650;23.248;2023-05-08T00:40:09;92754.66;;;10.98;73.17
53041;BME280;39326;42.650;23.248;2023-05-08T00:42:35;92753.88;;;10.87;73.65
53041;BME280;39326;42.650;23.248;2023-05-08T00:45:02;92751.59;;;10.78;73.63
53041;BME280;39326;42.650;23.248;2023-05-08T00:47:28;92751.97;;;10.80;73.64
53041;BME280;39326;42.650;23.248;2023-05-08T00:49:54;92748.13;;;10.74;73.71
53041;BME280;39326;42.650;23.248;2023-05-08T00:52:21;92754.25;;;10.78;73.63
53041;BME280;39326;42.650;23.248;2023-05-08T00:54:47;92756.53;;;10.80;73.64
53041;BME280;39326;42.650;23.248;2023-05-08T00:57:15;92760.34;;;10.79;73.67
53041;BME280;39326;42.650;23.248;2023-05-08T00:59:41;92754.97;;;10.68;74.11
53041;BME280;39326;42.650;23.248;2023-05-08T01:02:10;92770.59;;;10.70;74.18
53041;BME280;39326;42.650;23.248;2023-05-08T01:04:36;92769.88;;;10.73;73.66
53041;BME280;39326;42.650;23.248;2023-05-08T01:07:03;92766.06;;;10.74;73.95
53041;BME280;39326;42.650;23.248;2023-05-08T01:09:28;92769.09;;;10.76;73.83
53041;BME280;39326;42.650;23.248;2023-05-08T01:12:06;92765.28;;;10.73;73.91
53041;BME280;39326;42.650;23.248;2023-05-08T01:17:13;92772.88;;;10.64;74.21
53041;BME280;39326;42.650;23.248;2023-05-08T01:31:11;92758.38;;;10.58;74.58
53041;BME280;39326;42.650;23.248;2023-05-08T01:36:40;92758.00;;;10.52;74.18
53041;BME280;39326;42.650;23.248;2023-05-08T01:39:20;92752.66;;;10.52;74.35
53041;BME280;39326;42.650;23.248;2023-05-08T01:41:57;92754.19;;;10.57;74.72
53041;BME280;39326;42.650;23.248;2023-05-08T01:44:31;92757.63;;;10.61;74.51
53041;BME280;39326;42.650;23.248;2023-05-08T01:46:59;92751.13;;;10.51;74.84
53041;BME280;39326;42.650;23.248;2023-05-08T01:49:37;92751.13;;;10.48;74.92
53041;BME280;39326;42.650;23.248;2023-05-08T01:52:12;92749.22;;;10.48;75.09
53041;BME280;39326;42.650;23.248;2023-05-08T01:54:54;92745.78;;;10.48;75.05
53041;BME280;39326;42.650;23.248;2023-05-08T01:57:23;92750.75;;;10.46;75.19
53041;BME280;39326;42.650;23.248;2023-05-08T01:59:53;92746.53;;;10.41;75.43
53041;BME280;39326;42.650;23.248;2023-05-08T02:02:21;92748.00;;;10.31;75.67
53041;BME280;39326;42.650;23.248;2023-05-08T02:04:48;92748.78;;;10.28;75.94
53041;BME280;39326;42.650;23.248;2023-05-08T02:07:15;92743.00;;;10.16;76.34
53041;BME280;39326;42.650;23.248;2023-05-08T02:09:41;92751.00;;;10.16;76.25
53041;BME280;39326;42.650;23.248;2023-05-08T02:12:09;92749.09;;;10.16;76.43
53041;BME280;39326;42.650;23.248;2023-05-08T02:14:37;92752.53;;;10.17;76.20
53041;BME280;39326;42.650;23.248;2023-05-08T02:17:04;92747.19;;;10.17;76.21
53041;BME280;39326;42.650;23.248;2023-05-08T02:19:34;92756.72;;;10.18;76.16
53041;BME280;39326;42.650;23.248;2023-05-08T02:22:00;92752.53;;;10.17;76.16
53041;BME280;39326;42.650;23.248;2023-05-08T02:24:28;92752.59;;;10.27;76.17
53041;BME280;39326;42.650;23.248;2023-05-08T02:26:55;92753.31;;;10.24;75.97
53041;BME280;39326;42.650;23.248;2023-05-08T02:29:22;92746.81;;;10.18;76.21
53041;BME280;39326;42.650;23.248;2023-05-08T02:31:49;92746.50;;;10.27;76.53
53041;BME280;39326;42.650;23.248;2023-05-08T02:34:17;92750.28;;;10.26;76.18
53041;BME280;39326;42.650;23.248;2023-05-08T02:36:44;92752.53;;;10.20;76.50
53041;BME280;39326;42.650;23.248;2023-05-08T02:39:10;92758.66;;;10.21;76.56
53041;BME280;39326;42.650;23.248;2023-05-08T02:41:39;92757.09;;;10.20;76.69
53041;BME280;39326;42.650;23.248;2023-05-08T02:44:06;92755.19;;;10.17;76.94
53041;BME280;39326;42.650;23.248;2023-05-08T02:47:09;92759.00;;;10.19;77.11
53041;BME280;39326;42.650;23.248;2023-05-08T02:52:26;92755.91;;;10.06;77.63
53041;BME280;39326;42.650;23.248;2023-05-08T02:55:00;92764.31;;;10.08;77.33
53041;BME280;39326;42.650;23.248;2023-05-08T02:57:52;92763.53;;;10.12;77.16
53041;BME280;39326;42.650;23.248;2023-05-08T03:00:27;92754.38;;;10.05;77.39
53041;BME280;39326;42.650;23.248;2023-05-08T03:03:20;92753.94;;;10.00;77.54
53041;BME280;39326;42.650;23.248;2023-05-08T03:05:50;92755.16;;;10.13;77.15
53041;BME280;39326;42.650;23.248;2023-05-08T03:08:21;92755.13;;;10.06;77.26
53041;BME280;39326;42.650;23.248;2023-05-08T03:10:50;92757.84;;;10.10;76.78
53041;BME280;39326;42.650;23.248;2023-05-08T03:13:18;92750.59;;;10.10;76.88
53041;BME280;39326;42.650;23.248;2023-05-08T03:15:48;92763.53;;;10.08;76.85
53041;BME280;39326;42.650;23.248;2023-05-08T03:18:19;92768.50;;;10.13;76.77
53041;BME280;39326;42.650;23.248;2023-05-08T03:20:47;92765.06;;;10.13;76.61
53041;BME280;39326;42.650;23.248;2023-05-08T03:23:16;92760.91;;;10.19;76.47
53041;BME280;39326;42.650;23.248;2023-05-08T03:25:43;92765.47;;;10.18;76.93
53041;BME280;39326;42.650;23.248;2023-05-08T03:28:10;92764.75;;;10.21;76.34
53041;BME280;39326;42.650;23.248;2023-05-08T03:30:37;92768.94;;;10.22;76.64
53041;BME280;39326;42.650;23.248;2023-05-08T03:33:05;92766.66;;;10.21;76.64
53041;BME280;39326;42.650;23.248;2023-05-08T03:35:34;92773.50;;;10.22;76.31
53041;BME280;39326;42.650;23.248;2023-05-08T03:38:02;92768.94;;;10.22;76.09
53041;BME280;39326;42.650;23.248;2023-05-08T03:40:28;92770.06;;;10.21;76.29
53041;BME280;39326;42.650;23.248;2023-05-08T03:42:54;92766.25;;;10.26;76.23
53041;BME280;39326;42.650;23.248;2023-05-08T03:45:20;92760.59;;;10.27;76.33
53041;BME280;39326;42.650;23.248;2023-05-08T03:47:46;92762.09;;;10.32;76.42
53041;BME280;39326;42.650;23.248;2023-05-08T03:50:12;92754.88;;;10.32;75.61
53041;BME280;39326;42.650;23.248;2023-05-08T03:52:38;92770.94;;;10.47;76.02
53041;BME280;39326;42.650;23.248;2023-05-08T03:55:04;92769.78;;;10.48;76.30
53041;BME280;39326;42.650;23.248;2023-05-08T03:57:49;92768.28;;;10.57;75.58
53041;BME280;39326;42.650;23.248;2023-05-08T04:00:23;92775.53;;;10.60;76.06
53041;BME280;39326;42.650;23.248;2023-05-08T04:02:56;92770.94;;;10.57;75.87
53041;BME280;39326;42.650;23.248;2023-05-08T04:06:00;92784.72;;;10.74;75.32
53041;BME280;39326;42.650;23.248;2023-05-08T04:08:31;92779.78;;;10.79;74.80
53041;BME280;39326;42.650;23.248;2023-05-08T04:11:34;92785.13;;;10.86;74.89
53041;BME280;39326;42.650;23.248;2023-05-08T04:14:03;92787.81;;;10.90;74.37
53041;BME280;39326;42.650;23.248;2023-05-08T04:16:47;92792.00;;;10.95;74.38
53041;BME280;39326;42.650;23.248;2023-05-08T04:19:18;92790.50;;;11.01;73.89
53041;BME280;39326;42.650;23.248;2023-05-08T04:21:44;92787.84;;;11.04;73.74
53041;BME280;39326;42.650;23.248;2023-05-08T04:24:14;92787.47;;;11.09;73.47
53041;BME280;39326;42.650;23.248;2023-05-08T04:26:42;92790.13;;;11.13;73.03
53041;BME280;39326;42.650;23.248;2023-05-08T04:29:09;92788.59;;;11.19;73.14
53041;BME280;39326;42.650;23.248;2023-05-08T04:31:36;92794.72;;;11.23;73.22
53041;BME280;39326;42.650;23.248;2023-05-08T04:34:03;92792.03;;;11.27;73.12
53041;BME280;39326;42.650;23.248;2023-05-08T04:36:30;92796.63;;;11.33;72.78
53041;BME280;39326;42.650;23.248;2023-05-08T04:38:56;92794.34;;;11.32;72.53
53041;BME280;39326;42.650;23.248;2023-05-08T04:41:22;92791.34;;;11.40;71.96
53041;BME280;39326;42.650;23.248;2023-05-08T04:43:48;92787.88;;;11.36;71.67
53041;BME280;39326;42.650;23.248;2023-05-08T04:46:14;92793.63;;;11.53;71.71
53041;BME280;39326;42.650;23.248;2023-05-08T04:48:40;92786.00;;;11.65;71.54
53041;BME280;39326;42.650;23.248;2023-05-08T04:51:06;92779.88;;;11.72;71.53
53041;BME280;39326;42.650;23.248;2023-05-08T04:53:31;92774.53;;;11.79;71.03
53041;BME280;39326;42.650;23.248;2023-05-08T04:55:57;92776.41;;;11.86;70.68
53041;BME280;39326;42.650;23.248;2023-05-08T04:58:23;92774.47;;;11.90;70.82
53041;BME280;39326;42.650;23.248;2023-05-08T05:00:49;92774.50;;;11.97;70.60
53041;BME280;39326;42.650;23.248;2023-05-08T05:03:15;92772.63;;;11.73;71.70
53041;BME280;39326;42.650;23.248;2023-05-08T05:05:41;92774.88;;;11.88;70.86
53041;BME280;39326;42.650;23.248;2023-05-08T05:08:06;92769.94;;;11.90;71.45
53041;BME280;39326;42.650;23.248;2023-05-08T05:10:32;92767.22;;;12.01;71.33
53041;BME280;39326;42.650;23.248;2023-05-08T05:12:59;92764.88;;;12.14;71.13
53041;BME280;39326;42.650;23.248;2023-05-08T05:15:24;92766.78;;;12.24;70.59
53041;BME280;39326;42.650;23.248;2023-05-08T05:17:50;92764.50;;;12.19;70.96
53041;BME280;39326;42.650;23.248;2023-05-08T05:20:16;92762.53;;;12.34;70.89
53041;BME280;39326;42.650;23.248;2023-05-08T05:22:42;92766.69;;;12.49;70.60
53041;BME280;39326;42.650;23.248;2023-05-08T05:25:08;92764.72;;;12.57;70.52
53041;BME280;39326;42.650;23.248;2023-05-08T05:27:34;92771.97;;;12.63;70.37
53041;BME280;39326;42.650;23.248;2023-05-08T05:30:04;92763.88;;;12.77;69.82
53041;BME280;39326;42.650;23.248;2023-05-08T05:32:30;92771.88;;;12.88;69.58
53041;BME280;39326;42.650;23.248;2023-05-08T05:34:55;92762.97;;;13.02;69.12
53041;BME280;39326;42.650;23.248;2023-05-08T05:37:21;92760.69;;;13.00;69.06
53041;BME280;39326;42.650;23.248;2023-05-08T05:39:48;92761.91;;;12.89;69.35
53041;BME280;39326;42.650;23.248;2023-05-08T05:42:14;92762.56;;;13.07;68.82
53041;BME280;39326;42.650;23.248;2023-05-08T05:44:39;92773.31;;;13.03;69.05
53041;BME280;39326;42.650;23.248;2023-05-08T05:47:05;92772.00;;;13.26;68.00
53041;BME280;39326;42.650;23.248;2023-05-08T05:49:34;92767.81;;;13.21;68.42
53041;BME280;39326;42.650;23.248;2023-05-08T05:52:00;92772.41;;;13.21;68.27
53041;BME280;39326;42.650;23.248;2023-05-08T05:54:25;92774.63;;;13.33;67.26
53041;BME280;39326;42.650;23.248;2023-05-08T05:56:51;92768.94;;;13.27;67.11
53041;BME280;39326;42.650;23.248;2023-05-08T05:59:17;92767.81;;;13.28;68.50
53041;BME280;39326;42.650;23.248;2023-05-08T06:01:42;92765.47;;;13.30;67.93
53041;BME280;39326;42.650;23.248;2023-05-08T06:04:08;92755.31;;;13.56;66.72
53041;BME280;39326;42.650;23.248;2023-05-08T06:06:34;92759.53;;;13.53;66.35
53041;BME280;39326;42.650;23.248;2023-05-08T06:08:59;92756.38;;;13.66;66.07
53041;BME280;39326;42.650;23.248;2023-05-08T06:11:25;92765.84;;;13.77;66.21
53041;BME280;39326;42.650;23.248;2023-05-08T06:13:51;92758.19;;;13.79;66.43
53041;BME280;39326;42.650;23.248;2023-05-08T06:16:17;92760.09;;;13.79;65.95
53041;BME280;39326;42.650;23.248;2023-05-08T06:18:45;92754.66;;;13.90;64.99
53041;BME280;39326;42.650;23.248;2023-05-08T06:21:10;92752.28;;;13.99;64.80
53041;BME280;39326;42.650;23.248;2023-05-08T06:23:36;92750.47;;;14.23;64.36
53041;BME280;39326;42.650;23.248;2023-05-08T06:26:01;92757.03;;;14.52;63.40
53041;BME280;39326;42.650;23.248;2023-05-08T06:28:27;92751.72;;;14.49;64.47
53041;BME280;39326;42.650;23.248;2023-05-08T06:30:53;92752.09;;;14.51;63.93
53041;BME280;39326;42.650;23.248;2023-05-08T06:33:18;92763.78;;;14.68;63.42
53041;BME280;39326;42.650;23.248;2023-05-08T06:35:45;92764.88;;;14.70;62.98
53041;BME280;39326;42.650;23.248;2023-05-08T06:38:12;92765.94;;;14.80;63.21
53041;BME280;39326;42.650;23.248;2023-05-08T06:40:42;92768.16;;;14.54;62.52
53041;BME280;39326;42.650;23.248;2023-05-08T06:43:09;92765.13;;;14.79;63.35
53041;BME280;39326;42.650;23.248;2023-05-08T06:45:35;92772.88;;;15.04;62.30
53041;BME280;39326;42.650;23.248;2023-05-08T06:48:00;92772.16;;;15.31;60.95
53041;BME280;39326;42.650;23.248;2023-05-08T06:50:25;92765.25;;;15.53;60.23
53041;BME280;39326;42.650;23.248;2023-05-08T06:52:52;92768.56;;;15.64;59.49
53041;BME280;39326;42.650;23.248;2023-05-08T06:55:18;92762.47;;;15.60;58.83
53041;BME280;39326;42.650;23.248;2023-05-08T06:57:44;92769.06;;;15.79;58.68
53041;BME280;39326;42.650;23.248;2023-05-08T07:00:10;92773.81;;;15.71;58.80
53041;BME280;39326;42.650;23.248;2023-05-08T07:02:36;92771.00;;;15.79;59.41
53041;BME280;39326;42.650;23.248;2023-05-08T07:05:02;92783.19;;;15.87;58.72
53041;BME280;39326;42.650;23.248;2023-05-08T07:07:28;92783.31;;;16.03;58.38
53041;BME280;39326;42.650;23.248;2023-05-08T07:09:54;92777.13;;;15.79;57.66
53041;BME280;39326;42.650;23.248;2023-05-08T07:12:20;92777.13;;;16.06;57.73
53041;BME280;39326;42.650;23.248;2023-05-08T07:14:46;92777.78;;;16.10;58.89
53041;BME280;39326;42.650;23.248;2023-05-08T07:17:11;92777.56;;;16.24;57.35
53041;BME280;39326;42.650;23.248;2023-05-08T07:19:37;92782.38;;;16.13;56.65
53041;BME280;39326;42.650;23.248;2023-05-08T07:22:03;92780.41;;;15.90;56.59
53041;BME280;39326;42.650;23.248;2023-05-08T07:24:29;92779.94;;;15.99;57.25
53041;BME280;39326;42.650;23.248;2023-05-08T07:26:55;92779.97;;;16.19;58.18
53041;BME280;39326;42.650;23.248;2023-05-08T07:29:21;92777.41;;;16.32;57.50
53041;BME280;39326;42.650;23.248;2023-05-08T07:31:46;92781.84;;;16.62;56.43
53041;BME280;39326;42.650;23.248;2023-05-08T07:34:13;92792.53;;;16.65;56.58
53041;BME280;39326;42.650;23.248;2023-05-08T07:36:39;92784.19;;;16.60;55.94
53041;BME280;39326;42.650;23.248;2023-05-08T07:39:05;92779.69;;;16.33;55.97
53041;BME280;39326;42.650;23.248;2023-05-08T07:41:32;92779.38;;;16.51;56.75
53041;BME280;39326;42.650;23.248;2023-05-08T07:43:58;92787.91;;;16.66;57.47
53041;BME280;39326;42.650;23.248;2023-05-08T07:46:24;92782.94;;;16.84;56.12
53041;BME280;39326;42.650;23.248;2023-05-08T07:48:50;92784.09;;;16.83;55.91
53041;BME280;39326;42.650;23.248;2023-05-08T07:51:16;92790.13;;;16.91;55.56
53041;BME280;39326;42.650;23.248;2023-05-08T07:53:42;92799.47;;;17.06;55.62
53041;BME280;39326;42.650;23.248;2023-05-08T07:56:08;92794.41;;;17.08;54.87
53041;BME280;39326;42.650;23.248;2023-05-08T07:58:34;92793.16;;;17.13;55.90
53041;BME280;39326;42.650;23.248;2023-05-08T08:01:00;92797.38;;;17.14;54.56
53041;BME280;39326;42.650;23.248;2023-05-08T08:03:26;92801.63;;;17.31;54.12
53041;BME280;39326;42.650;23.248;2023-05-08T08:05:52;92794.03;;;17.42;53.78
53041;BME280;39326;42.650;23.248;2023-05-08T08:08:18;92798.84;;;17.51;53.84
53041;BME280;39326;42.650;23.248;2023-05-08T08:10:44;92791.63;;;17.64;53.55
53041;BME280;39326;42.650;23.248;2023-05-08T08:13:10;92790.59;;;17.58;54.47
53041;BME280;39326;42.650;23.248;2023-05-08T08:15:37;92800.72;;;17.86;54.12
53041;BME280;39326;42.650;23.248;2023-05-08T08:18:03;92792.97;;;18.05;54.07
53041;BME280;39326;42.650;23.248;2023-05-08T08:20:28;92790.63;;;17.91;53.49
53041;BME280;39326;42.650;23.248;2023-05-08T08:22:55;92789.06;;;18.22;53.37
53041;BME280;39326;42.650;23.248;2023-05-08T08:25:21;92789.38;;;18.40;53.54
53041;BME280;39326;42.650;23.248;2023-05-08T08:27:47;92799.25;;;18.60;53.06
53041;BME280;39326;42.650;23.248;2023-05-08T08:30:13;92788.53;;;18.56;52.85
53041;BME280;39326;42.650;23.248;2023-05-08T08:32:39;92784.97;;;18.76;52.97
53041;BME280;39326;42.650;23.248;2023-05-08T08:35:05;92774.00;;;18.96;51.43
53041;BME280;39326;42.650;23.248;2023-05-08T08:37:31;92774.88;;;18.63;52.04
53041;BME280;39326;42.650;23.248;2023-05-08T08:39:57;92779.06;;;18.64;52.97
53041;BME280;39326;42.650;23.248;2023-05-08T08:42:22;92779.38;;;18.83;53.50
53041;BME280;39326;42.650;23.248;2023-05-08T08:44:48;92765.97;;;18.92;52.95
53041;BME280;39326;42.650;23.248;2023-05-08T08:47:15;92772.09;;;18.67;54.51
53041;BME280;39326;42.650;23.248;2023-05-08T08:49:47;92772.03;;;18.83;53.68
53041;BME280;39326;42.650;23.248;2023-05-08T08:55:09;92762.38;;;18.70;53.17
53041;BME280;39326;42.650;23.248;2023-05-08T08:57:38;92760.97;;;18.78;52.97
53041;BME280;39326;42.650;23.248;2023-05-08T09:00:08;92748.22;;;18.78;51.56
53041;BME280;39326;42.650;23.248;2023-05-08T09:02:36;92752.72;;;18.68;51.84
53041;BME280;39326;42.650;23.248;2023-05-08T09:05:02;92745.19;;;18.76;51.41
53041;BME280;39326;42.650;23.248;2023-05-08T09:07:28;92741.91;;;18.68;51.45
53041;BME280;39326;42.650;23.248;2023-05-08T09:09:55;92731.22;;;18.36;50.90
53041;BME280;39326;42.650;23.248;2023-05-08T09:12:20;92739.94;;;18.27;51.72
53041;BME280;39326;42.650;23.248;2023-05-08T09:14:47;92727.13;;;18.31;52.24
53041;BME280;39326;42.650;23.248;2023-05-08T09:17:13;92725.31;;;18.41;50.09
53041;BME280;39326;42.650;23.248;2023-05-08T09:19:39;92716.69;;;18.46;50.04
53041;BME280;39326;42.650;23.248;2023-05-08T09:22:05;92706.34;;;18.57;50.61
53041;BME280;39326;42.650;23.248;2023-05-08T09:24:58;92697.28;;;18.64;49.41
53041;BME280;39326;42.650;23.248;2023-05-08T09:27:26;92693.59;;;18.58;48.91
53041;BME280;39326;42.650;23.248;2023-05-08T09:30:00;92688.78;;;18.78;48.21
53041;BME280;39326;42.650;23.248;2023-05-08T09:32:27;92693.66;;;18.83;47.77
53041;BME280;39326;42.650;23.248;2023-05-08T09:34:53;92704.69;;;18.89;46.41
53041;BME280;39326;42.650;23.248;2023-05-08T09:37:20;92707.81;;;19.00;47.52
53041;BME280;39326;42.650;23.248;2023-05-08T09:39:45;92711.16;;;19.17;47.88
53041;BME280;39326;42.650;23.248;2023-05-08T09:42:12;92712.44;;;19.38;47.67
53041;BME280;39326;42.650;23.248;2023-05-08T09:44:51;92712.13;;;19.36;48.39
53041;BME280;39326;42.650;23.248;2023-05-08T09:47:22;92730.66;;;19.50;49.64
53041;BME280;39326;42.650;23.248;2023-05-08T09:52:21;92734.44;;;19.65;50.21
53041;BME280;39326;42.650;23.248;2023-05-08T09:57:27;92733.22;;;19.79;49.99
53041;BME280;39326;42.650;23.248;2023-05-08T10:02:33;92726.31;;;19.53;51.62
53041;BME280;39326;42.650;23.248;2023-05-08T10:04:58;92724.16;;;19.35;52.47
53041;BME280;39326;42.650;23.248;2023-05-08T10:07:33;92727.53;;;19.52;52.24
53041;BME280;39326;42.650;23.248;2023-05-08T10:10:04;92725.13;;;19.66;52.98
53041;BME280;39326;42.650;23.248;2023-05-08T10:12:31;92726.53;;;19.20;52.21
53041;BME280;39326;42.650;23.248;2023-05-08T10:14:57;92716.69;;;19.26;52.54
53041;BME280;39326;42.650;23.248;2023-05-08T10:17:37;92717.66;;;19.45;52.52
53041;BME280;39326;42.650;23.248;2023-05-08T10:20:07;92717.00;;;19.54;51.84
53041;BME280;39326;42.650;23.248;2023-05-08T10:22:37;92709.28;;;19.78;52.18
53041;BME280;39326;42.650;23.248;2023-05-08T10:25:09;92711.41;;;19.95;51.21
53041;BME280;39326;42.650;23.248;2023-05-08T10:27:41;92701.63;;;19.63;50.45
53041;BME280;39326;42.650;23.248;2023-05-08T10:30:12;92705.06;;;19.77;50.74
53041;BME280;39326;42.650;23.248;2023-05-08T10:32:42;92706.47;;;19.68;52.36
53041;BME280;39326;42.650;23.248;2023-05-08T10:35:09;92705.09;;;19.64;53.04
53041;BME280;39326;42.650;23.248;2023-05-08T10:37:36;92705.66;;;19.93;52.80
53041;BME280;39326;42.650;23.248;2023-05-08T10:40:03;92697.59;;;20.15;52.98
53041;BME280;39326;42.650;23.248;2023-05-08T10:42:30;92693.63;;;20.51;51.24
53041;BME280;39326;42.650;23.248;2023-05-08T10:44:56;92691.66;;;20.73;51.96
53041;BME280;39326;42.650;23.248;2023-05-08T10:47:43;92695.13;;;21.36;50.59
53041;BME280;39326;42.650;23.248;2023-05-08T10:53:10;92675.47;;;21.72;46.35
53041;BME280;39326;42.650;23.248;2023-05-08T10:55:37;92681.16;;;21.56;45.75
53041;BME280;39326;42.650;23.248;2023-05-08T10:58:15;92680.50;;;21.33;45.30
53041;BME280;39326;42.650;23.248;2023-05-08T11:03:28;92670.53;;;21.21;44.79
53041;BME280;39326;42.650;23.248;2023-05-08T11:05:56;92679.44;;;21.00;45.34
53041;BME280;39326;42.650;23.248;2023-05-08T11:08:26;92672.91;;;21.19;46.25
53041;BME280;39326;42.650;23.248;2023-05-08T11:13:35;92651.66;;;21.85;46.93
53041;BME280;39326;42.650;23.248;2023-05-08T11:16:02;92653.28;;;21.74;48.10
53041;BME280;39326;42.650;23.248;2023-05-08T11:18:28;92655.09;;;21.58;47.65
53041;BME280;39326;42.650;23.248;2023-05-08T11:20:55;92646.00;;;21.43;47.43
53041;BME280;39326;42.650;23.248;2023-05-08T11:26:03;92647.72;;;21.77;50.38
53041;BME280;39326;42.650;23.248;2023-05-08T11:28:38;92640.50;;;22.11;46.49
53041;BME280;39326;42.650;23.248;2023-05-08T11:31:06;92639.09;;;22.61;45.58
53041;BME280;39326;42.650;23.248;2023-05-08T11:33:35;92626.69;;;23.03;43.22
53041;BME280;39326;42.650;23.248;2023-05-08T11:38:40;92625.31;;;22.74;42.47
53041;BME280;39326;42.650;23.248;2023-05-08T11:41:22;92610.69;;;23.05;40.92
53041;BME280;39326;42.650;23.248;2023-05-08T11:49:11;92605.03;;;23.65;36.99
53041;BME280;39326;42.650;23.248;2023-05-08T11:51:38;92615.25;;;23.80;37.80
53041;BME280;39326;42.650;23.248;2023-05-08T11:54:10;92610.69;;;23.62;37.95
53041;BME280;39326;42.650;23.248;2023-05-08T11:56:37;92606.81;;;23.30;38.81
53041;BME280;39326;42.650;23.248;2023-05-08T11:59:07;92604.03;;;23.06;40.23
53041;BME280;39326;42.650;23.248;2023-05-08T12:01:34;92602.78;;;23.16;39.95
53041;BME280;39326;42.650;23.248;2023-05-08T12:04:04;92601.53;;;23.26;40.83
53041;BME280;39326;42.650;23.248;2023-05-08T12:06:31;92598.72;;;23.11;39.19
53041;BME280;39326;42.650;23.248;2023-05-08T12:08:59;92608.66;;;23.14;39.57
53041;BME280;39326;42.650;23.248;2023-05-08T12:11:25;92605.50;;;23.16;38.64
53041;BME280;39326;42.650;23.248;2023-05-08T12:13:53;92610.06;;;22.67;39.57
53041;BME280;39326;42.650;23.248;2023-05-08T12:16:19;92603.63;;;22.37;39.34
53041;BME280;39326;42.650;23.248;2023-05-08T12:18:48;92600.38;;;21.87;40.15
53041;BME280;39326;42.650;23.248;2023-05-08T12:21:14;92608.06;;;21.98;41.26
53041;BME280;39326;42.650;23.248;2023-05-08T12:23:41;92599.44;;;21.72;43.13
53041;BME280;39326;42.650;23.248;2023-05-08T12:26:07;92604.97;;;21.32;45.12
53041;BME280;39326;42.650;23.248;2023-05-08T12:28:33;92607.66;;;21.23;47.79
53041;BME280;39326;42.650;23.248;2023-05-08T12:31:00;92608.53;;;21.11;48.92
53041;BME280;39326;42.650;23.248;2023-05-08T12:33:26;92606.16;;;20.81;48.78
53041;BME280;39326;42.650;23.248;2023-05-08T12:35:54;92604.28;;;20.69;47.13
53041;BME280;39326;42.650;23.248;2023-05-08T12:38:24;92613.50;;;20.41;47.56
53041;BME280;39326;42.650;23.248;2023-05-08T12:40:51;92609.66;;;20.29;49.50
53041;BME280;39326;42.650;23.248;2023-05-08T12:43:17;92602.72;;;20.28;47.86
53041;BME280;39326;42.650;23.248;2023-05-08T12:45:43;92604.66;;;20.06;48.49
53041;BME280;39326;42.650;23.248;2023-05-08T12:48:13;92600.53;;;19.92;48.39
53041;BME280;39326;42.650;23.248;2023-05-08T12:50:45;92597.41;;;19.81;49.30
53041;BME280;39326;42.650;23.248;2023-05-08T12:53:13;92597.41;;;19.81;49.89
53041;BME280;39326;42.650;23.248;2023-05-08T12:55:45;92595.59;;;19.78;50.90
53041;BME280;39326;42.650;23.248;2023-05-08T12:58:16;92585.91;;;19.67;50.13
53041;BME280;39326;42.650;23.248;2023-05-08T13:00:47;92589.53;;;19.52;49.92
53041;BME280;39326;42.650;23.248;2023-05-08T13:03:21;92586.84;;;19.52;50.49
53041;BME280;39326;42.650;23.248;2023-05-08T13:05:48;92590.91;;;19.56;50.97
53041;BME280;39326;42.650;23.248;2023-05-08T13:08:15;92587.59;;;19.52;51.88
53041;BME280;39326;42.650;23.248;2023-05-08T13:10:51;92587.84;;;19.67;49.93
53041;BME280;39326;42.650;23.248;2023-05-08T13:13:21;92591.75;;;19.66;49.71
53041;BME280;39326;42.650;23.248;2023-05-08T13:15:48;92582.25;;;19.61;49.78
53041;BME280;39326;42.650;23.248;2023-05-08T13:18:15;92589.09;;;19.40;49.01
53041;BME280;39326;42.650;23.248;2023-05-08T13:20:41;92588.13;;;19.47;48.57
53041;BME280;39326;42.650;23.248;2023-05-08T13:23:07;92585.25;;;19.63;48.26
53041;BME280;39326;42.650;23.248;2023-05-08T13:25:34;92585.25;;;19.63;48.60
53041;BME280;39326;42.650;23.248;2023-05-08T13:28:00;92598.31;;;19.30;50.85
53041;BME280;39326;42.650;23.248;2023-05-08T13:30:26;92600.84;;;19.12;50.66
53041;BME280;39326;42.650;23.248;2023-05-08T13:32:52;92612.22;;;19.19;51.13
53041;BME280;39326;42.650;23.248;2023-05-08T13:35:18;92618.94;;;19.02;53.50
53041;BME280;39326;42.650;23.248;2023-05-08T13:37:45;92612.88;;;18.73;55.29
53041;BME280;39326;42.650;23.248;2023-05-08T13:40:11;92631.94;;;18.69;55.46
53041;BME280;39326;42.650;23.248;2023-05-08T13:42:37;92630.66;;;18.32;56.93
53041;BME280;39326;42.650;23.248;2023-05-08T13:45:04;92634.97;;;18.29;56.31